x

Buoy B01 - Western Maine Shelf (44030) Wave Buoy

1:04am - Thu 24th Jul 2014 All times are EDT. -4 hours from GMT.

  • Sig Wave height 2.6ft
  • Peak Period 5s
  • Wind
    4mph, 7mph gusts
  • Sea Temp 64°f
  • 空気 Temp 65°f
  • Sea Pressure 1006.3mb
  • Buoy B01 - Western Maine Shelf
  • Buoy B01 - Western Maine Shelf

More Historic Weather Station data

Upgrade to MSW Pro to gain access to the past 30 days of data for over 8000 Wavebouys and Weather Stations around the globe.

Join Pro

Comparision Forecast

View Surf forecast
   
Thu 07/24 1:04am 2.5ft 5s 4 7 mph 1006.3mb 64f 65f
12:04am 2.5ft 5s 7 9 mph 1007.4mb 64f 66f
Wed 07/23 11:04pm 3.5ft 6s 2 4 mph 1007.4mb 64f 68f
10:04pm 3.5ft 5s 2 4 mph 1007.8mb 64f 69f
9:04pm 3.5ft 5s 7
mph
1007.3mb 64f 71f
8:04pm 3.5ft 8s 16
mph
1005.6mb 64f 68f
7:04pm 3.5ft 8s 18 20 mph 1005mb 64f 69f
6:04pm 4ft 8s 18 20 mph 1004.9mb 64f 69f
5:04pm 4ft 8s 18 20 mph 1005.3mb 65f 69f
4:04pm 3.5ft 8s 18 22 mph 1005.8mb 65f 70f
3:04pm 3ft 8s 16 18 mph 1006.6mb 65f 69f
2:04pm 2.5ft 4s 13 16 mph 1007.3mb 64f 68f
1:04pm 3ft 8s 16 18 mph 1008mb 64f 67f
12:04pm 2.5ft 8s 11 13 mph 1008.7mb 64f 68f
11:04am 3ft 8s 11 13 mph 1009.4mb 64f 67f
10:04am 3ft 8s 9 11 mph 1009.9mb 64f 67f
9:04am 2.5ft 8s 11
mph
1010.4mb 64f 66f
8:04am 2.5ft 8s 11 13 mph 1010.7mb 64f 66f
7:04am 2.5ft 8s 11 13 mph 1010.9mb 64f 66f
6:04am 2.5ft 8s 9
mph
1011.3mb 64f 66f
5:04am 2.5ft 8s 9
mph
1011.4mb 64f 66f
4:04am 2.5ft 8s 11 13 mph 1011.4mb 64f 66f
3:04am 2.5ft 6s 11
mph
1012mb 64f 66f
2:04am 2.5ft 8s 11 13 mph 1012.5mb 64f 67f
1:04am 2.5ft 8s 11
mph
1012.9mb 64f 67f
12:04am 2.5ft 6s 11 13 mph 1013mb 64f 67f
Tue 07/22 11:04pm 2.5ft 8s 11
mph
1013.5mb 64f 67f
10:04pm 3ft 6s 9
mph
1013.9mb 64f 66f
9:04pm 3.5ft 6s 11 13 mph 1013.9mb 64f 66f
8:04pm 3.5ft 6s 13 18 mph 1013.9mb 64f 67f
7:04pm 2.5ft 6s 13 16 mph 1014.2mb 64f 67f
6:04pm 3.5ft 8s 16 18 mph 1014.6mb 65f 67f
5:04pm 2.5ft 8s 16 18 mph 1015.4mb 64f 67f
4:04pm 2.5ft 8s 16 18 mph 1016.2mb 64f 66f
3:04pm 2.5ft 8s 13 16 mph 1016.7mb 64f 66f
2:04pm 2.5ft 8s 13 16 mph 1016.9mb 64f 65f
1:04pm 2.5ft 8s 11 13 mph 1017.8mb 64f 65f
12:04pm 1.6ft 6s 11 13 mph 1018.3mb 64f 64f
11:04am 2.5ft 6s 9 11 mph 1018.9mb 64f 64f
10:04am 2.5ft 8s 9
mph
1018.6mb 63f 63f
9:04am 2.5ft 6s 7 9 mph 1018.9mb 63f 63f
8:04am 2.5ft 6s 7 9 mph 1019.2mb 63f 63f
7:04am 2.5ft 6s 7
mph
1019.2mb 63f 63f
6:04am 3ft 6s 9
mph
1019.2mb 63f 62f
5:04am 2.5ft 8s 7 9 mph 1019.3mb 63f 62f
4:04am 2.5ft 8s 7
mph
1019.2mb 63f 62f
3:04am 2.5ft 6s 4
mph
1019.4mb 63f 62f
2:04am 2ft 6s 7
mph
1019.7mb 63f 63f
1:04am 2.5ft 8s 7 9 mph 1020mb 63f 63f
12:04am 2.5ft 8s 4 7 mph 1020.2mb 63f 62f
Mon 07/21 11:04pm 2.5ft 8s 2 4 mph 1020.4mb 63f 62f
10:04pm 2.5ft 8s 4
mph
1020.4mb 64f 62f
9:04pm 2.5ft 8s 4
mph
1020.3mb 63f 61f
8:04pm 2ft 8s 7
mph
1020mb 63f 61f
7:04pm 2ft 6s 4 7 mph 1019.9mb 63f 61f
6:04pm 2.5ft 6s 7
mph
1020mb 63f 62f
5:04pm 2.5ft 8s 9 11 mph 1020.2mb 63f 62f
4:04pm 2.5ft 8s 11 13 mph 1020.5mb 63f 62f
3:04pm 2.5ft 8s 11
mph
1021mb 64f 62f
2:04pm 2ft 8s 4 7 mph 1021.4mb 65f 64f
1:04pm 2.5ft 8s 4
mph
1021.6mb 65f 63f
12:04pm 2ft 8s 4
mph
1022.1mb 64f 63f
11:04am 2ft 8s 4 7 mph 1022.4mb 63f 63f
10:04am 2.5ft 8s 7 9 mph 1022.1mb 63f 63f
9:04am 2ft 8s 9
mph
1021.8mb 62f 62f
8:04am 2.5ft 6s 9
mph
1021.6mb 62f 62f
7:04am 2.5ft 8s 9 11 mph 1021.3mb 62f 61f
6:04am 2ft 8s 9 11 mph 1021.1mb 62f 61f
5:04am 2.5ft 6s 11
mph
1020.8mb 62f 61f
4:04am 2ft 8s 11 13 mph 1020.5mb 62f 61f
3:04am 2.5ft 8s 9 11 mph 1020.6mb 62f 61f
2:04am 2.5ft 8s 11 13 mph 1020.7mb 62f 61f
1:04am 2.5ft 8s 9
mph
1021mb 63f 62f
12:04am 2.5ft 8s 7 9 mph 1021mb 63f 62f
Sun 07/20 11:04pm 2ft 8s 4 7 mph 1020.8mb 63f 63f
10:04pm 2ft 8s 4 7 mph 1020.8mb 63f 63f
9:04pm 2ft 8s 4
mph
1020.7mb 64f 63f
8:04pm 2ft 6s 4
mph
1020.6mb 63f 63f
7:04pm 2ft 6s 7
mph
1020.7mb 63f 63f
6:04pm 2.5ft 8s 7 9 mph 1020.5mb 63f 64f
5:04pm 2.5ft 8s 4 7 mph 1020.8mb 63f 63f
4:04pm 2ft 8s 7
mph
1020.9mb 63f 63f
3:04pm 2ft 8s 7
mph
1021.3mb 63f 64f
2:04pm 2ft 8s 7
mph
1021.6mb 63f 64f
1:04pm 1.6ft 8s 7 9 mph 1021.9mb 63f 65f
12:04pm 1.6ft 8s 4 7 mph 1022.3mb 63f 67f
11:04am 1.3ft 8s 7
mph
1022.5mb 63f 64f
10:04am 1.6ft 8s 7
mph
1022.6mb 62f 64f
9:04am 1.6ft 8s 7
mph
1022.5mb 62f 63f
8:04am 1.6ft 8s 4 7 mph 1022.4mb 62f 62f
7:04am 2ft 8s 7
mph
1021.6mb 62f 62f